sensor_id;sensor_type;location;lat;lon;timestamp;temperature;humidity
8099;DHT22;4092;47.876;9.372;2023-02-15T00:00:54;1.20;99.90
8099;DHT22;4092;47.876;9.372;2023-02-15T00:03:31;1.20;99.90
8099;DHT22;4092;47.876;9.372;2023-02-15T00:05:59;1.20;99.90
8099;DHT22;4092;47.876;9.372;2023-02-15T00:08:26;1.20;99.90
8099;DHT22;4092;47.876;9.372;2023-02-15T00:11:03;1.20;99.90
8099;DHT22;4092;47.876;9.372;2023-02-15T00:13:30;1.20;99.90
8099;DHT22;4092;47.876;9.372;2023-02-15T00:16:01;1.20;99.90
8099;DHT22;4092;47.876;9.372;2023-02-15T00:18:28;1.20;99.90
8099;DHT22;4092;47.876;9.372;2023-02-15T00:20:55;1.20;99.90
8099;DHT22;4092;47.876;9.372;2023-02-15T00:23:25;1.20;99.90
8099;DHT22;4092;47.876;9.372;2023-02-15T00:25:52;1.10;99.90
8099;DHT22;4092;47.876;9.372;2023-02-15T00:28:30;1.10;99.90
8099;DHT22;4092;47.876;9.372;2023-02-15T00:31:03;1.10;99.90
8099;DHT22;4092;47.876;9.372;2023-02-15T00:33:30;1.00;99.90
8099;DHT22;4092;47.876;9.372;2023-02-15T00:35:57;1.00;99.90
8099;DHT22;4092;47.876;9.372;2023-02-15T00:38:26;1.10;99.90
8099;DHT22;4092;47.876;9.372;2023-02-15T00:40:54;1.10;99.90
8099;DHT22;4092;47.876;9.372;2023-02-15T00:43:21;1.10;99.90
8099;DHT22;4092;47.876;9.372;2023-02-15T00:45:49;1.10;99.90
8099;DHT22;4092;47.876;9.372;2023-02-15T00:48:16;1.10;99.90
8099;DHT22;4092;47.876;9.372;2023-02-15T00:50:45;1.10;99.90
8099;DHT22;4092;47.876;9.372;2023-02-15T00:53:12;1.00;99.90
8099;DHT22;4092;47.876;9.372;2023-02-15T00:55:41;0.90;99.90
8099;DHT22;4092;47.876;9.372;2023-02-15T00:58:09;0.80;99.90
8099;DHT22;4092;47.876;9.372;2023-02-15T01:00:36;0.80;99.90
8099;DHT22;4092;47.876;9.372;2023-02-15T01:03:13;0.70;99.90
8099;DHT22;4092;47.876;9.372;2023-02-15T01:05:40;0.60;99.90
8099;DHT22;4092;47.876;9.372;2023-02-15T01:08:08;0.60;99.90
8099;DHT22;4092;47.876;9.372;2023-02-15T01:10:35;0.60;99.90
8099;DHT22;4092;47.876;9.372;2023-02-15T01:13:04;0.50;99.90
8099;DHT22;4092;47.876;9.372;2023-02-15T01:15:34;0.50;99.90
8099;DHT22;4092;47.876;9.372;2023-02-15T01:18:01;0.40;99.90
8099;DHT22;4092;47.876;9.372;2023-02-15T01:20:29;0.40;99.90
8099;DHT22;4092;47.876;9.372;2023-02-15T01:22:58;0.30;99.90
8099;DHT22;4092;47.876;9.372;2023-02-15T01:25:25;0.20;99.90
8099;DHT22;4092;47.876;9.372;2023-02-15T01:27:52;0.20;99.90
8099;DHT22;4092;47.876;9.372;2023-02-15T01:30:23;0.20;99.90
8099;DHT22;4092;47.876;9.372;2023-02-15T01:32:50;0.10;99.90
8099;DHT22;4092;47.876;9.372;2023-02-15T01:35:18;0.10;99.90
8099;DHT22;4092;47.876;9.372;2023-02-15T01:37:45;0.00;99.90
8099;DHT22;4092;47.876;9.372;2023-02-15T01:40:14;0.00;99.90
8099;DHT22;4092;47.876;9.372;2023-02-15T01:42:41;0.00;99.90
8099;DHT22;4092;47.876;9.372;2023-02-15T01:45:19;-0.10;99.90
8099;DHT22;4092;47.876;9.372;2023-02-15T01:47:53;-0.20;99.90
8099;DHT22;4092;47.876;9.372;2023-02-15T01:50:27;-0.10;99.90
8099;DHT22;4092;47.876;9.372;2023-02-15T01:52:58;-0.20;99.90
8099;DHT22;4092;47.876;9.372;2023-02-15T01:55:32;-0.10;99.90
8099;DHT22;4092;47.876;9.372;2023-02-15T01:58:00;-0.10;99.90
8099;DHT22;4092;47.876;9.372;2023-02-15T02:00:28;-0.10;99.90
8099;DHT22;4092;47.876;9.372;2023-02-15T02:02:57;-0.10;99.90
8099;DHT22;4092;47.876;9.372;2023-02-15T02:05:24;-0.10;99.90
8099;DHT22;4092;47.876;9.372;2023-02-15T02:07:54;-0.10;99.90
8099;DHT22;4092;47.876;9.372;2023-02-15T02:10:25;-0.10;99.90
8099;DHT22;4092;47.876;9.372;2023-02-15T02:12:55;-0.10;99.90
8099;DHT22;4092;47.876;9.372;2023-02-15T02:15:29;-0.10;99.90
8099;DHT22;4092;47.876;9.372;2023-02-15T02:18:21;-0.10;99.90
8099;DHT22;4092;47.876;9.372;2023-02-15T02:23:57;-0.30;99.90
8099;DHT22;4092;47.876;9.372;2023-02-15T02:26:57;-0.30;99.90
8099;DHT22;4092;47.876;9.372;2023-02-15T02:30:10;-0.30;99.90
8099;DHT22;4092;47.876;9.372;2023-02-15T02:35:57;-0.30;99.90
8099;DHT22;4092;47.876;9.372;2023-02-15T02:38:32;-0.40;99.90
8099;DHT22;4092;47.876;9.372;2023-02-15T02:41:09;-0.50;99.90
8099;DHT22;4092;47.876;9.372;2023-02-15T02:43:47;-0.50;99.90
8099;DHT22;4092;47.876;9.372;2023-02-15T02:46:19;-0.50;99.90
8099;DHT22;4092;47.876;9.372;2023-02-15T02:48:49;-0.50;99.90
8099;DHT22;4092;47.876;9.372;2023-02-15T02:51:16;-0.50;99.90
8099;DHT22;4092;47.876;9.372;2023-02-15T02:53:50;-0.60;99.90
8099;DHT22;4092;47.876;9.372;2023-02-15T02:56:23;-0.60;99.90
8099;DHT22;4092;47.876;9.372;2023-02-15T02:58:55;-0.70;99.90
8099;DHT22;4092;47.876;9.372;2023-02-15T03:01:26;-0.60;99.90
8099;DHT22;4092;47.876;9.372;2023-02-15T03:03:57;-0.60;99.90
8099;DHT22;4092;47.876;9.372;2023-02-15T03:06:30;-0.60;99.90
8099;DHT22;4092;47.876;9.372;2023-02-15T03:09:05;-0.60;99.90
8099;DHT22;4092;47.876;9.372;2023-02-15T03:11:41;-0.70;99.90
8099;DHT22;4092;47.876;9.372;2023-02-15T03:14:10;-0.70;99.90
8099;DHT22;4092;47.876;9.372;2023-02-15T03:16:39;-0.70;99.90
8099;DHT22;4092;47.876;9.372;2023-02-15T03:19:10;-0.70;99.90
8099;DHT22;4092;47.876;9.372;2023-02-15T03:21:42;-0.70;99.90
8099;DHT22;4092;47.876;9.372;2023-02-15T03:24:19;-0.80;99.90
8099;DHT22;4092;47.876;9.372;2023-02-15T03:26:49;-0.70;99.90
8099;DHT22;4092;47.876;9.372;2023-02-15T03:29:18;-0.70;99.90
8099;DHT22;4092;47.876;9.372;2023-02-15T03:31:49;-0.80;99.90
8099;DHT22;4092;47.876;9.372;2023-02-15T03:34:19;-0.80;99.90
8099;DHT22;4092;47.876;9.372;2023-02-15T03:36:52;-0.80;99.90
8099;DHT22;4092;47.876;9.372;2023-02-15T03:39:29;-0.90;99.90
8099;DHT22;4092;47.876;9.372;2023-02-15T03:42:09;-0.80;99.90
8099;DHT22;4092;47.876;9.372;2023-02-15T03:44:49;-0.80;99.90
8099;DHT22;4092;47.876;9.372;2023-02-15T03:47:20;-0.90;99.90
8099;DHT22;4092;47.876;9.372;2023-02-15T03:49:53;-0.90;99.90
8099;DHT22;4092;47.876;9.372;2023-02-15T03:52:22;-0.90;99.90
8099;DHT22;4092;47.876;9.372;2023-02-15T03:54:52;-1.00;99.90
8099;DHT22;4092;47.876;9.372;2023-02-15T03:57:22;-1.00;99.90
8099;DHT22;4092;47.876;9.372;2023-02-15T04:00:12;-1.00;99.90
8099;DHT22;4092;47.876;9.372;2023-02-15T04:03:12;-1.10;99.90
8099;DHT22;4092;47.876;9.372;2023-02-15T04:05:44;-1.10;99.90
8099;DHT22;4092;47.876;9.372;2023-02-15T04:08:12;-1.20;99.90
8099;DHT22;4092;47.876;9.372;2023-02-15T04:10:39;-1.10;99.90
8099;DHT22;4092;47.876;9.372;2023-02-15T04:13:22;-1.00;99.90
8099;DHT22;4092;47.876;9.372;2023-02-15T04:15:50;-1.10;99.90
8099;DHT22;4092;47.876;9.372;2023-02-15T04:18:31;-1.10;99.90
8099;DHT22;4092;47.876;9.372;2023-02-15T04:21:18;-1.10;99.90
8099;DHT22;4092;47.876;9.372;2023-02-15T04:24:03;-1.20;99.90
8099;DHT22;4092;47.876;9.372;2023-02-15T04:26:47;-1.20;99.90
8099;DHT22;4092;47.876;9.372;2023-02-15T04:29:18;-1.10;99.90
8099;DHT22;4092;47.876;9.372;2023-02-15T04:31:45;-1.20;99.90
8099;DHT22;4092;47.876;9.372;2023-02-15T04:34:13;-1.10;99.90
8099;DHT22;4092;47.876;9.372;2023-02-15T04:36:41;-1.10;99.90
8099;DHT22;4092;47.876;9.372;2023-02-15T04:39:09;-1.10;99.90
8099;DHT22;4092;47.876;9.372;2023-02-15T04:41:39;-1.00;99.90
8099;DHT22;4092;47.876;9.372;2023-02-15T04:44:06;-1.00;99.90
8099;DHT22;4092;47.876;9.372;2023-02-15T04:46:33;-1.10;99.90
8099;DHT22;4092;47.876;9.372;2023-02-15T04:49:00;-1.00;99.90
8099;DHT22;4092;47.876;9.372;2023-02-15T04:51:28;-1.00;99.90
8099;DHT22;4092;47.876;9.372;2023-02-15T04:53:57;-1.00;99.90
8099;DHT22;4092;47.876;9.372;2023-02-15T04:56:24;-0.90;99.90
8099;DHT22;4092;47.876;9.372;2023-02-15T04:58:51;-1.00;99.90
8099;DHT22;4092;47.876;9.372;2023-02-15T05:01:18;-1.00;99.90
8099;DHT22;4092;47.876;9.372;2023-02-15T05:03:45;-1.00;99.90
8099;DHT22;4092;47.876;9.372;2023-02-15T05:06:12;-1.10;99.90
8099;DHT22;4092;47.876;9.372;2023-02-15T05:08:39;-1.10;99.90
8099;DHT22;4092;47.876;9.372;2023-02-15T05:11:08;-1.00;99.90
8099;DHT22;4092;47.876;9.372;2023-02-15T05:13:35;-0.90;99.90
8099;DHT22;4092;47.876;9.372;2023-02-15T05:16:02;-0.80;99.90
8099;DHT22;4092;47.876;9.372;2023-02-15T05:18:29;-0.90;99.90
8099;DHT22;4092;47.876;9.372;2023-02-15T05:20:56;-0.90;99.90
8099;DHT22;4092;47.876;9.372;2023-02-15T05:23:23;-1.00;99.90
8099;DHT22;4092;47.876;9.372;2023-02-15T05:25:51;-1.10;99.90
8099;DHT22;4092;47.876;9.372;2023-02-15T05:28:39;-1.20;99.90
8099;DHT22;4092;47.876;9.372;2023-02-15T05:31:07;-1.20;99.90
8099;DHT22;4092;47.876;9.372;2023-02-15T05:33:36;-1.20;99.90
8099;DHT22;4092;47.876;9.372;2023-02-15T05:36:03;-1.20;99.90
8099;DHT22;4092;47.876;9.372;2023-02-15T05:38:34;-1.20;99.90
8099;DHT22;4092;47.876;9.372;2023-02-15T05:41:16;-1.20;99.90
8099;DHT22;4092;47.876;9.372;2023-02-15T05:43:47;-1.10;99.90
8099;DHT22;4092;47.876;9.372;2023-02-15T05:46:14;-1.10;99.90
8099;DHT22;4092;47.876;9.372;2023-02-15T05:48:41;-1.10;99.90
8099;DHT22;4092;47.876;9.372;2023-02-15T05:51:19;-1.20;99.90
8099;DHT22;4092;47.876;9.372;2023-02-15T05:58:13;-1.20;99.90
8099;DHT22;4092;47.876;9.372;2023-02-15T06:04:35;-1.30;99.90
8099;DHT22;4092;47.876;9.372;2023-02-15T06:07:02;-1.40;99.90
8099;DHT22;4092;47.876;9.372;2023-02-15T06:09:29;-1.40;99.90
8099;DHT22;4092;47.876;9.372;2023-02-15T06:11:56;-1.40;99.90
8099;DHT22;4092;47.876;9.372;2023-02-15T06:14:23;-1.60;99.90
8099;DHT22;4092;47.876;9.372;2023-02-15T06:16:50;-1.60;99.90
8099;DHT22;4092;47.876;9.372;2023-02-15T06:19:17;-1.60;99.90
8099;DHT22;4092;47.876;9.372;2023-02-15T06:21:46;-1.50;99.90
8099;DHT22;4092;47.876;9.372;2023-02-15T06:24:13;-1.40;99.90
8099;DHT22;4092;47.876;9.372;2023-02-15T06:26:40;-1.30;99.90
8099;DHT22;4092;47.876;9.372;2023-02-15T06:29:08;-1.10;99.90
8099;DHT22;4092;47.876;9.372;2023-02-15T06:31:35;-0.70;99.90
8099;DHT22;4092;47.876;9.372;2023-02-15T06:34:02;-0.40;99.90
8099;DHT22;4092;47.876;9.372;2023-02-15T06:36:29;-0.30;99.90
8099;DHT22;4092;47.876;9.372;2023-02-15T06:38:58;-0.10;99.90
8099;DHT22;4092;47.876;9.372;2023-02-15T06:41:25;-0.10;99.90
8099;DHT22;4092;47.876;9.372;2023-02-15T06:43:55;0.00;99.90
8099;DHT22;4092;47.876;9.372;2023-02-15T06:46:22;0.00;99.90
8099;DHT22;4092;47.876;9.372;2023-02-15T06:48:49;0.10;99.90
8099;DHT22;4092;47.876;9.372;2023-02-15T06:51:18;0.00;99.90
8099;DHT22;4092;47.876;9.372;2023-02-15T06:53:45;0.10;99.90
8099;DHT22;4092;47.876;9.372;2023-02-15T06:56:13;0.10;99.90
8099;DHT22;4092;47.876;9.372;2023-02-15T06:58:41;0.20;99.90
8099;DHT22;4092;47.876;9.372;2023-02-15T07:01:09;0.20;99.90
8099;DHT22;4092;47.876;9.372;2023-02-15T07:03:36;0.20;99.90
8099;DHT22;4092;47.876;9.372;2023-02-15T07:06:04;0.20;99.90
8099;DHT22;4092;47.876;9.372;2023-02-15T07:08:33;0.30;99.90
8099;DHT22;4092;47.876;9.372;2023-02-15T07:11:01;0.30;99.90
8099;DHT22;4092;47.876;9.372;2023-02-15T07:13:43;0.30;99.90
8099;DHT22;4092;47.876;9.372;2023-02-15T07:16:10;0.40;99.90
8099;DHT22;4092;47.876;9.372;2023-02-15T07:18:38;0.50;99.90
8099;DHT22;4092;47.876;9.372;2023-02-15T07:21:05;0.60;99.90
8099;DHT22;4092;47.876;9.372;2023-02-15T07:23:34;0.70;99.90
8099;DHT22;4092;47.876;9.372;2023-02-15T07:26:01;0.70;99.90
8099;DHT22;4092;47.876;9.372;2023-02-15T07:28:29;0.80;99.90
8099;DHT22;4092;47.876;9.372;2023-02-15T07:30:57;0.90;99.90
8099;DHT22;4092;47.876;9.372;2023-02-15T07:33:25;1.10;99.90
8099;DHT22;4092;47.876;9.372;2023-02-15T07:35:54;1.20;99.90
8099;DHT22;4092;47.876;9.372;2023-02-15T07:38:22;1.40;99.90
8099;DHT22;4092;47.876;9.372;2023-02-15T07:40:49;1.60;99.90
8099;DHT22;4092;47.876;9.372;2023-02-15T07:43:17;1.70;99.90
8099;DHT22;4092;47.876;9.372;2023-02-15T07:45:44;1.80;99.90
8099;DHT22;4092;47.876;9.372;2023-02-15T07:48:12;1.90;99.90
8099;DHT22;4092;47.876;9.372;2023-02-15T07:50:39;2.00;99.90
8099;DHT22;4092;47.876;9.372;2023-02-15T07:53:06;2.20;99.90
8099;DHT22;4092;47.876;9.372;2023-02-15T07:55:33;2.20;99.90
8099;DHT22;4092;47.876;9.372;2023-02-15T07:58:00;2.30;99.90
8099;DHT22;4092;47.876;9.372;2023-02-15T08:00:28;2.40;99.90
8099;DHT22;4092;47.876;9.372;2023-02-15T08:02:55;2.40;99.90
8099;DHT22;4092;47.876;9.372;2023-02-15T08:05:44;2.60;99.90
8099;DHT22;4092;47.876;9.372;2023-02-15T08:08:12;2.60;99.90
8099;DHT22;4092;47.876;9.372;2023-02-15T08:10:58;2.70;99.90
8099;DHT22;4092;47.876;9.372;2023-02-15T08:13:43;2.70;99.90
8099;DHT22;4092;47.876;9.372;2023-02-15T08:16:20;2.80;99.90
8099;DHT22;4092;47.876;9.372;2023-02-15T08:18:47;2.90;99.90
8099;DHT22;4092;47.876;9.372;2023-02-15T08:21:15;3.00;99.90
8099;DHT22;4092;47.876;9.372;2023-02-15T08:23:42;3.10;99.90
8099;DHT22;4092;47.876;9.372;2023-02-15T08:26:09;3.20;99.90
8099;DHT22;4092;47.876;9.372;2023-02-15T08:28:37;3.20;99.90
8099;DHT22;4092;47.876;9.372;2023-02-15T08:31:05;3.40;99.90
8099;DHT22;4092;47.876;9.372;2023-02-15T08:33:32;3.40;99.90
8099;DHT22;4092;47.876;9.372;2023-02-15T08:36:03;3.50;99.90
8099;DHT22;4092;47.876;9.372;2023-02-15T08:38:32;3.60;99.90
8099;DHT22;4092;47.876;9.372;2023-02-15T08:41:09;3.70;99.90
8099;DHT22;4092;47.876;9.372;2023-02-15T08:43:36;3.80;99.90
8099;DHT22;4092;47.876;9.372;2023-02-15T08:46:03;3.80;99.90
8099;DHT22;4092;47.876;9.372;2023-02-15T08:48:30;3.90;99.90
8099;DHT22;4092;47.876;9.372;2023-02-15T08:50:57;4.00;99.90
8099;DHT22;4092;47.876;9.372;2023-02-15T08:53:24;4.10;99.90
8099;DHT22;4092;47.876;9.372;2023-02-15T08:55:57;4.20;99.90
8099;DHT22;4092;47.876;9.372;2023-02-15T08:58:24;4.30;99.90
8099;DHT22;4092;47.876;9.372;2023-02-15T09:00:51;4.40;99.90
8099;DHT22;4092;47.876;9.372;2023-02-15T09:03:18;4.50;99.90
8099;DHT22;4092;47.876;9.372;2023-02-15T09:05:45;4.60;99.90
8099;DHT22;4092;47.876;9.372;2023-02-15T09:08:12;4.70;99.90
8099;DHT22;4092;47.876;9.372;2023-02-15T09:10:39;4.70;99.90
8099;DHT22;4092;47.876;9.372;2023-02-15T09:13:07;4.80;99.90
8099;DHT22;4092;47.876;9.372;2023-02-15T09:15:34;4.80;99.90
8099;DHT22;4092;47.876;9.372;2023-02-15T09:18:02;4.90;99.90
8099;DHT22;4092;47.876;9.372;2023-02-15T09:20:32;5.00;99.90
8099;DHT22;4092;47.876;9.372;2023-02-15T09:23:03;5.10;99.90
8099;DHT22;4092;47.876;9.372;2023-02-15T09:25:30;5.20;99.90
8099;DHT22;4092;47.876;9.372;2023-02-15T09:27:57;5.30;99.90
8099;DHT22;4092;47.876;9.372;2023-02-15T09:30:25;5.40;99.90
8099;DHT22;4092;47.876;9.372;2023-02-15T09:32:52;5.50;99.90
8099;DHT22;4092;47.876;9.372;2023-02-15T09:35:19;5.50;99.90
8099;DHT22;4092;47.876;9.372;2023-02-15T09:37:46;5.60;99.90
8099;DHT22;4092;47.876;9.372;2023-02-15T09:40:15;5.70;99.90
8099;DHT22;4092;47.876;9.372;2023-02-15T09:43:14;5.80;99.90
8099;DHT22;4092;47.876;9.372;2023-02-15T09:46:10;5.80;99.90
8099;DHT22;4092;47.876;9.372;2023-02-15T09:48:40;5.90;99.90
8099;DHT22;4092;47.876;9.372;2023-02-15T09:54:25;6.10;99.90
8099;DHT22;4092;47.876;9.372;2023-02-15T09:57:07;6.10;99.90
8099;DHT22;4092;47.876;9.372;2023-02-15T09:59:43;6.30;99.90
8099;DHT22;4092;47.876;9.372;2023-02-15T10:02:27;6.20;99.90
8099;DHT22;4092;47.876;9.372;2023-02-15T10:05:15;6.30;99.90
8099;DHT22;4092;47.876;9.372;2023-02-15T10:08:06;6.30;99.90
8099;DHT22;4092;47.876;9.372;2023-02-15T10:10:43;6.40;99.90
8099;DHT22;4092;47.876;9.372;2023-02-15T10:13:23;6.60;99.90
8099;DHT22;4092;47.876;9.372;2023-02-15T10:16:09;6.60;99.90
8099;DHT22;4092;47.876;9.372;2023-02-15T10:18:55;6.70;99.90
8099;DHT22;4092;47.876;9.372;2023-02-15T10:21:39;6.80;99.90
8099;DHT22;4092;47.876;9.372;2023-02-15T10:24:34;7.00;99.90
8099;DHT22;4092;47.876;9.372;2023-02-15T10:27:09;7.10;99.90
8099;DHT22;4092;47.876;9.372;2023-02-15T10:29:39;7.20;99.90
8099;DHT22;4092;47.876;9.372;2023-02-15T10:32:20;7.20;99.90
8099;DHT22;4092;47.876;9.372;2023-02-15T10:34:57;7.40;99.90
8099;DHT22;4092;47.876;9.372;2023-02-15T10:37:46;7.40;99.90
8099;DHT22;4092;47.876;9.372;2023-02-15T10:40:25;7.50;99.90
8099;DHT22;4092;47.876;9.372;2023-02-15T10:46:03;7.60;99.90
8099;DHT22;4092;47.876;9.372;2023-02-15T10:49:03;7.90;99.90
8099;DHT22;4092;47.876;9.372;2023-02-15T10:51:41;8.00;99.90
8099;DHT22;4092;47.876;9.372;2023-02-15T10:54:20;8.10;99.90
8099;DHT22;4092;47.876;9.372;2023-02-15T10:56:59;8.30;99.90
8099;DHT22;4092;47.876;9.372;2023-02-15T10:59:38;8.30;99.90
8099;DHT22;4092;47.876;9.372;2023-02-15T11:02:15;8.30;99.90
8099;DHT22;4092;47.876;9.372;2023-02-15T11:04:55;8.30;99.90
8099;DHT22;4092;47.876;9.372;2023-02-15T11:07:28;8.30;99.90
8099;DHT22;4092;47.876;9.372;2023-02-15T11:10:01;8.40;99.90
8099;DHT22;4092;47.876;9.372;2023-02-15T11:12:33;8.50;99.90
8099;DHT22;4092;47.876;9.372;2023-02-15T11:15:03;8.50;99.90
8099;DHT22;4092;47.876;9.372;2023-02-15T11:17:35;8.50;99.90
8099;DHT22;4092;47.876;9.372;2023-02-15T11:20:14;8.60;99.90
8099;DHT22;4092;47.876;9.372;2023-02-15T11:22:48;8.80;99.90
8099;DHT22;4092;47.876;9.372;2023-02-15T11:25:19;8.90;99.90
8099;DHT22;4092;47.876;9.372;2023-02-15T11:27:48;8.90;99.90
8099;DHT22;4092;47.876;9.372;2023-02-15T11:30:20;8.80;99.90
8099;DHT22;4092;47.876;9.372;2023-02-15T11:32:49;8.80;99.90
8099;DHT22;4092;47.876;9.372;2023-02-15T11:35:23;8.90;99.90
8099;DHT22;4092;47.876;9.372;2023-02-15T11:37:57;9.10;99.90
8099;DHT22;4092;47.876;9.372;2023-02-15T11:40:27;9.30;99.90
8099;DHT22;4092;47.876;9.372;2023-02-15T11:42:56;9.30;99.90
8099;DHT22;4092;47.876;9.372;2023-02-15T11:45:28;9.40;99.90
8099;DHT22;4092;47.876;9.372;2023-02-15T11:47:57;9.50;99.90
8099;DHT22;4092;47.876;9.372;2023-02-15T11:50:27;9.70;99.90
8099;DHT22;4092;47.876;9.372;2023-02-15T11:52:58;9.90;99.90
8099;DHT22;4092;47.876;9.372;2023-02-15T11:55:27;9.70;99.90
8099;DHT22;4092;47.876;9.372;2023-02-15T11:57:59;9.70;99.90
8099;DHT22;4092;47.876;9.372;2023-02-15T12:00:33;9.60;99.90
8099;DHT22;4092;47.876;9.372;2023-02-15T12:03:07;9.60;99.90
8099;DHT22;4092;47.876;9.372;2023-02-15T12:05:37;9.60;99.90
8099;DHT22;4092;47.876;9.372;2023-02-15T12:08:15;9.70;99.90
8099;DHT22;4092;47.876;9.372;2023-02-15T12:10:50;9.90;99.90
8099;DHT22;4092;47.876;9.372;2023-02-15T12:13:20;10.10;99.90
8099;DHT22;4092;47.876;9.372;2023-02-15T12:15:48;10.20;99.90
8099;DHT22;4092;47.876;9.372;2023-02-15T12:18:27;10.30;99.90
8099;DHT22;4092;47.876;9.372;2023-02-15T12:20:59;10.40;99.90
8099;DHT22;4092;47.876;9.372;2023-02-15T12:23:29;10.60;99.90
8099;DHT22;4092;47.876;9.372;2023-02-15T12:25:58;10.80;99.90
8099;DHT22;4092;47.876;9.372;2023-02-15T12:28:29;10.90;99.90
8099;DHT22;4092;47.876;9.372;2023-02-15T12:30:59;11.20;99.90
8099;DHT22;4092;47.876;9.372;2023-02-15T12:33:29;11.30;99.90
8099;DHT22;4092;47.876;9.372;2023-02-15T12:36:00;11.10;99.90
8099;DHT22;4092;47.876;9.372;2023-02-15T12:38:29;11.20;99.90
8099;DHT22;4092;47.876;9.372;2023-02-15T12:40:58;11.50;99.90
8099;DHT22;4092;47.876;9.372;2023-02-15T12:43:27;11.70;99.90
8099;DHT22;4092;47.876;9.372;2023-02-15T12:46:14;11.90;99.90
8099;DHT22;4092;47.876;9.372;2023-02-15T12:48:45;12.00;99.90
8099;DHT22;4092;47.876;9.372;2023-02-15T12:51:15;12.20;99.90
8099;DHT22;4092;47.876;9.372;2023-02-15T12:53:43;12.40;99.90
8099;DHT22;4092;47.876;9.372;2023-02-15T12:56:10;12.60;99.90
8099;DHT22;4092;47.876;9.372;2023-02-15T12:58:38;12.80;99.90
8099;DHT22;4092;47.876;9.372;2023-02-15T13:01:14;13.00;99.90
8099;DHT22;4092;47.876;9.372;2023-02-15T13:03:55;12.90;99.90
8099;DHT22;4092;47.876;9.372;2023-02-15T13:06:23;12.90;99.90
8099;DHT22;4092;47.876;9.372;2023-02-15T13:08:54;12.60;99.90
8099;DHT22;4092;47.876;9.372;2023-02-15T13:11:25;12.80;99.90
8099;DHT22;4092;47.876;9.372;2023-02-15T13:13:55;12.90;99.90
8099;DHT22;4092;47.876;9.372;2023-02-15T13:16:30;13.30;99.90
8099;DHT22;4092;47.876;9.372;2023-02-15T13:19:03;13.50;99.90
8099;DHT22;4092;47.876;9.372;2023-02-15T13:21:33;13.70;99.90
8099;DHT22;4092;47.876;9.372;2023-02-15T13:24:06;13.80;99.90
8099;DHT22;4092;47.876;9.372;2023-02-15T13:26:35;13.70;99.90
8099;DHT22;4092;47.876;9.372;2023-02-15T13:29:06;13.70;99.90
8099;DHT22;4092;47.876;9.372;2023-02-15T13:31:35;13.60;99.90
8099;DHT22;4092;47.876;9.372;2023-02-15T13:34:09;13.70;99.90
8099;DHT22;4092;47.876;9.372;2023-02-15T13:36:43;13.80;99.90
8099;DHT22;4092;47.876;9.372;2023-02-15T13:39:21;13.70;99.90
8099;DHT22;4092;47.876;9.372;2023-02-15T13:41:58;13.90;99.90
8099;DHT22;4092;47.876;9.372;2023-02-15T13:44:53;14.00;99.90
8099;DHT22;4092;47.876;9.372;2023-02-15T13:47:28;14.00;99.30
8099;DHT22;4092;47.876;9.372;2023-02-15T13:50:12;14.40;99.40
8099;DHT22;4092;47.876;9.372;2023-02-15T13:52:47;14.80;98.50
8099;DHT22;4092;47.876;9.372;2023-02-15T13:55:35;15.00;98.10
8099;DHT22;4092;47.876;9.372;2023-02-15T13:58:48;15.40;98.60
8099;DHT22;4092;47.876;9.372;2023-02-15T14:01:27;15.50;97.30
8099;DHT22;4092;47.876;9.372;2023-02-15T14:04:26;15.50;98.00
8099;DHT22;4092;47.876;9.372;2023-02-15T14:07:25;15.50;97.80
8099;DHT22;4092;47.876;9.372;2023-02-15T14:10:06;15.30;97.80
8099;DHT22;4092;47.876;9.372;2023-02-15T14:12:50;15.40;98.10
8099;DHT22;4092;47.876;9.372;2023-02-15T14:15:28;15.50;98.80
8099;DHT22;4092;47.876;9.372;2023-02-15T14:18:07;15.50;96.50
8099;DHT22;4092;47.876;9.372;2023-02-15T14:20:49;15.60;97.90
8099;DHT22;4092;47.876;9.372;2023-02-15T14:23:28;15.60;97.20
8099;DHT22;4092;47.876;9.372;2023-02-15T14:26:02;15.60;97.90
8099;DHT22;4092;47.876;9.372;2023-02-15T14:28:38;15.60;97.20
8099;DHT22;4092;47.876;9.372;2023-02-15T14:31:10;15.70;97.60
8099;DHT22;4092;47.876;9.372;2023-02-15T14:33:39;15.70;97.30
8099;DHT22;4092;47.876;9.372;2023-02-15T14:36:13;16.00;98.10
8099;DHT22;4092;47.876;9.372;2023-02-15T14:38:59;16.10;97.00
8099;DHT22;4092;47.876;9.372;2023-02-15T14:41:35;16.30;96.60
8099;DHT22;4092;47.876;9.372;2023-02-15T14:44:08;16.40;96.60
8099;DHT22;4092;47.876;9.372;2023-02-15T14:46:44;16.30;95.90
8099;DHT22;4092;47.876;9.372;2023-02-15T14:49:13;16.40;96.40
8099;DHT22;4092;47.876;9.372;2023-02-15T14:51:58;16.70;95.30
8099;DHT22;4092;47.876;9.372;2023-02-15T14:55:00;16.70;94.80
8099;DHT22;4092;47.876;9.372;2023-02-15T14:57:29;16.70;94.90
8099;DHT22;4092;47.876;9.372;2023-02-15T15:00:00;16.80;94.20
8099;DHT22;4092;47.876;9.372;2023-02-15T15:02:43;16.70;93.90
8099;DHT22;4092;47.876;9.372;2023-02-15T15:05:17;16.80;94.30
8099;DHT22;4092;47.876;9.372;2023-02-15T15:07:47;16.90;94.20
8099;DHT22;4092;47.876;9.372;2023-02-15T15:10:34;16.90;95.90
8099;DHT22;4092;47.876;9.372;2023-02-15T15:13:36;17.10;94.60
8099;DHT22;4092;47.876;9.372;2023-02-15T15:16:30;17.20;95.60
8099;DHT22;4092;47.876;9.372;2023-02-15T15:18:57;17.10;95.90
8099;DHT22;4092;47.876;9.372;2023-02-15T15:21:53;17.10;93.80
8099;DHT22;4092;47.876;9.372;2023-02-15T15:24:48;17.50;94.60
8099;DHT22;4092;47.876;9.372;2023-02-15T15:30:48;18.60;93.70
8099;DHT22;4092;47.876;9.372;2023-02-15T15:36:34;19.50;94.90
8099;DHT22;4092;47.876;9.372;2023-02-15T15:39:21;19.90;92.80
8099;DHT22;4092;47.876;9.372;2023-02-15T15:41:55;19.90;91.90
8099;DHT22;4092;47.876;9.372;2023-02-15T15:44:59;20.20;92.80
8099;DHT22;4092;47.876;9.372;2023-02-15T15:47:44;19.90;92.60
8099;DHT22;4092;47.876;9.372;2023-02-15T15:50:18;20.10;93.00
8099;DHT22;4092;47.876;9.372;2023-02-15T15:52:49;20.10;93.40
8099;DHT22;4092;47.876;9.372;2023-02-15T15:55:19;20.30;94.10
8099;DHT22;4092;47.876;9.372;2023-02-15T15:57:49;20.10;93.90
8099;DHT22;4092;47.876;9.372;2023-02-15T16:00:28;19.90;93.80
8099;DHT22;4092;47.876;9.372;2023-02-15T16:02:57;18.70;93.30
8099;DHT22;4092;47.876;9.372;2023-02-15T16:05:25;17.90;94.20
8099;DHT22;4092;47.876;9.372;2023-02-15T16:07:52;17.10;94.80
8099;DHT22;4092;47.876;9.372;2023-02-15T16:10:22;16.50;95.80
8099;DHT22;4092;47.876;9.372;2023-02-15T16:12:50;15.90;96.30
8099;DHT22;4092;47.876;9.372;2023-02-15T16:15:20;15.40;96.90
8099;DHT22;4092;47.876;9.372;2023-02-15T16:17:51;14.70;97.40
8099;DHT22;4092;47.876;9.372;2023-02-15T16:20:23;13.70;98.40
8099;DHT22;4092;47.876;9.372;2023-02-15T16:22:56;12.90;98.90
8099;DHT22;4092;47.876;9.372;2023-02-15T16:25:36;12.10;99.90
8099;DHT22;4092;47.876;9.372;2023-02-15T16:28:08;11.50;99.90
8099;DHT22;4092;47.876;9.372;2023-02-15T16:30:39;10.90;99.90
8099;DHT22;4092;47.876;9.372;2023-02-15T16:33:09;10.40;99.90
8099;DHT22;4092;47.876;9.372;2023-02-15T16:35:38;10.00;99.90
8099;DHT22;4092;47.876;9.372;2023-02-15T16:38:09;9.40;99.90
8099;DHT22;4092;47.876;9.372;2023-02-15T16:40:42;9.00;99.90
8099;DHT22;4092;47.876;9.372;2023-02-15T16:43:19;8.60;99.90
8099;DHT22;4092;47.876;9.372;2023-02-15T16:46:02;8.30;99.90
8099;DHT22;4092;47.876;9.372;2023-02-15T16:48:30;8.20;99.90
8099;DHT22;4092;47.876;9.372;2023-02-15T16:50:58;8.20;99.90
8099;DHT22;4092;47.876;9.372;2023-02-15T16:53:28;8.10;99.90
8099;DHT22;4092;47.876;9.372;2023-02-15T16:55:57;7.90;99.90
8099;DHT22;4092;47.876;9.372;2023-02-15T16:58:31;7.60;99.90
8099;DHT22;4092;47.876;9.372;2023-02-15T17:01:02;7.30;99.90
8099;DHT22;4092;47.876;9.372;2023-02-15T17:03:32;7.10;99.90
8099;DHT22;4092;47.876;9.372;2023-02-15T17:06:00;7.00;99.90
8099;DHT22;4092;47.876;9.372;2023-02-15T17:08:31;6.80;99.90
8099;DHT22;4092;47.876;9.372;2023-02-15T17:11:20;6.80;99.90
8099;DHT22;4092;47.876;9.372;2023-02-15T17:16:50;6.70;99.90